createdAt,value
2024-01-06T00:02:20.264Z,18.35
2024-01-06T00:04:46.889Z,15.82
2024-01-06T00:07:14.760Z,16.38
2024-01-06T00:09:41.459Z,17.42
2024-01-06T00:12:08.158Z,16.05
2024-01-06T00:14:34.810Z,17.33
2024-01-06T00:17:01.477Z,16.63
2024-01-06T00:19:28.250Z,18.40
2024-01-06T00:21:54.870Z,19.23
2024-01-06T00:24:21.511Z,19.98
2024-01-06T00:26:48.128Z,20.30
2024-01-06T00:29:14.715Z,18.05
2024-01-06T00:31:41.469Z,22.38
2024-01-06T00:34:08.172Z,22.00
2024-01-06T00:36:34.770Z,22.70
2024-01-06T00:39:01.341Z,22.98
2024-01-06T00:41:27.943Z,24.45
2024-01-06T00:43:54.553Z,24.33
2024-01-06T00:46:21.147Z,23.80
2024-01-06T00:48:47.834Z,25.42
2024-01-06T00:51:14.543Z,24.40
2024-01-06T00:53:41.102Z,24.88
2024-01-06T00:56:07.757Z,23.80
2024-01-06T00:58:34.345Z,26.25
2024-01-06T01:01:01.055Z,24.92
2024-01-06T01:03:27.901Z,26.38
2024-01-06T01:05:54.771Z,26.80
2024-01-06T01:08:21.389Z,27.13
2024-01-06T01:10:47.951Z,27.02
2024-01-06T01:13:14.493Z,25.77
2024-01-06T01:15:41.131Z,29.75
2024-01-06T01:18:09.185Z,26.10
2024-01-06T01:20:35.910Z,27.63
2024-01-06T01:23:02.461Z,30.17
2024-01-06T01:25:29.103Z,28.65
2024-01-06T01:27:55.705Z,28.20
2024-01-06T01:30:22.372Z,25.13
2024-01-06T01:32:49.101Z,26.30
2024-01-06T01:35:16.103Z,28.08
2024-01-06T01:37:42.770Z,29.35
2024-01-06T01:40:09.838Z,26.27
2024-01-06T01:42:36.477Z,26.40
2024-01-06T01:45:03.131Z,29.15
2024-01-06T01:47:29.874Z,28.77
2024-01-06T01:49:57.650Z,26.38
2024-01-06T01:52:24.609Z,28.17
2024-01-06T01:54:53.802Z,26.58
2024-01-06T01:57:24.595Z,25.85
2024-01-06T01:59:51.242Z,26.67
2024-01-06T02:02:18.300Z,23.08
2024-01-06T02:04:46.721Z,27.35
2024-01-06T02:07:13.308Z,26.40
2024-01-06T02:09:39.938Z,26.35
2024-01-06T02:12:06.820Z,25.38
2024-01-06T02:14:33.782Z,25.25
2024-01-06T02:17:00.362Z,24.65
2024-01-06T02:19:26.986Z,26.17
2024-01-06T02:21:54.698Z,25.63
2024-01-06T02:24:22.049Z,24.85
2024-01-06T02:26:48.725Z,23.40
2024-01-06T02:29:15.284Z,23.98
2024-01-06T02:31:42.058Z,25.52
2024-01-06T02:34:08.840Z,23.27
2024-01-06T02:36:35.540Z,23.88
2024-01-06T02:39:02.408Z,25.05
2024-01-06T02:41:28.950Z,23.33
2024-01-06T02:43:56.676Z,23.63
2024-01-06T02:46:23.277Z,22.27
2024-01-06T02:48:49.961Z,23.10
2024-01-06T02:51:16.745Z,20.65
2024-01-06T02:53:43.445Z,22.00
2024-01-06T02:56:13.534Z,25.92
2024-01-06T02:58:40.540Z,22.52
2024-01-06T03:01:07.296Z,20.38
2024-01-06T03:03:34.283Z,21.80
2024-01-06T03:06:01.133Z,21.90
2024-01-06T03:08:28.026Z,23.20
2024-01-06T03:10:54.623Z,19.20
2024-01-06T03:13:21.386Z,20.25
2024-01-06T03:15:48.324Z,22.40
2024-01-06T03:18:15.200Z,20.77
2024-01-06T03:20:41.931Z,20.15
2024-01-06T03:23:08.566Z,19.30
2024-01-06T03:25:35.120Z,18.67
2024-01-06T03:28:01.970Z,19.60
2024-01-06T03:30:28.636Z,18.65
2024-01-06T03:32:55.307Z,18.73
2024-01-06T03:35:21.956Z,20.00
2024-01-06T03:37:48.813Z,16.45
2024-01-06T03:40:15.428Z,17.95
2024-01-06T03:42:42.032Z,17.75
2024-01-06T03:45:09.023Z,18.58
2024-01-06T03:47:35.662Z,18.80
2024-01-06T03:50:02.229Z,18.02
2024-01-06T03:52:28.855Z,16.05
2024-01-06T03:54:55.469Z,16.98
2024-01-06T03:57:22.200Z,17.98
2024-01-06T03:59:48.832Z,16.73
2024-01-06T04:02:15.380Z,18.05
2024-01-06T04:04:41.977Z,16.52
2024-01-06T04:07:08.549Z,15.65
2024-01-06T04:09:35.194Z,16.10
2024-01-06T04:12:02.288Z,15.52
2024-01-06T04:14:29.240Z,16.80
2024-01-06T04:16:57.654Z,15.27
2024-01-06T04:19:25.068Z,14.60
2024-01-06T04:21:52.067Z,16.65
2024-01-06T04:24:18.976Z,15.73
2024-01-06T04:26:47.057Z,15.20
2024-01-06T04:29:13.805Z,13.02
2024-01-06T04:31:41.827Z,14.50
2024-01-06T04:34:08.687Z,14.27
2024-01-06T04:36:35.405Z,14.30
2024-01-06T04:39:02.187Z,14.27
2024-01-06T04:41:28.849Z,13.38
2024-01-06T04:43:55.433Z,13.00
2024-01-06T04:46:22.013Z,13.73
2024-01-06T04:48:48.678Z,12.32
2024-01-06T04:51:16.073Z,11.55
2024-01-06T04:53:42.653Z,13.20
2024-01-06T04:56:09.194Z,11.05
2024-01-06T04:58:35.971Z,12.10
2024-01-06T05:01:03.476Z,11.50
2024-01-06T05:03:30.360Z,12.32
2024-01-06T05:05:57.239Z,11.93
2024-01-06T05:08:24.013Z,12.93
2024-01-06T05:10:50.720Z,11.10
2024-01-06T05:13:18.530Z,10.10
2024-01-06T05:15:45.179Z,10.95
2024-01-06T05:18:11.966Z,11.27
2024-01-06T05:20:38.696Z,10.35
2024-01-06T05:23:05.214Z,9.95
2024-01-06T05:25:31.786Z,11.15
2024-01-06T05:27:58.506Z,10.20
2024-01-06T05:30:25.482Z,10.73
2024-01-06T05:32:52.202Z,9.88
2024-01-06T05:35:18.856Z,8.57
2024-01-06T05:37:45.425Z,9.68
2024-01-06T05:40:12.795Z,8.73
2024-01-06T05:42:39.578Z,8.75
2024-01-06T05:45:06.717Z,9.25
2024-01-06T05:47:33.760Z,8.07
2024-01-06T05:50:00.500Z,9.82
2024-01-06T05:52:27.081Z,9.60
2024-01-06T05:54:53.850Z,8.52
2024-01-06T05:57:20.575Z,7.15
2024-01-06T05:59:47.301Z,8.45
2024-01-06T06:02:14.773Z,8.40
2024-01-06T06:04:41.479Z,7.13
2024-01-06T06:07:08.207Z,8.75
2024-01-06T06:09:35.945Z,7.57
2024-01-06T06:12:02.726Z,8.77
2024-01-06T06:14:30.470Z,7.28
2024-01-06T06:16:57.998Z,7.25
2024-01-06T06:19:24.859Z,7.32
2024-01-06T06:21:51.582Z,7.00
2024-01-06T06:24:18.282Z,6.82
2024-01-06T06:26:44.954Z,6.07
2024-01-06T06:29:11.582Z,7.55
2024-01-06T06:31:38.287Z,6.63
2024-01-06T06:34:08.697Z,6.47
2024-01-06T06:36:36.192Z,6.15
2024-01-06T06:39:05.193Z,7.60
2024-01-06T06:41:31.987Z,8.38
2024-01-06T06:43:58.852Z,6.13
2024-01-06T06:46:25.658Z,6.13
2024-01-06T06:48:52.510Z,6.43
2024-01-06T06:51:19.463Z,5.45
2024-01-06T06:53:48.274Z,5.65
2024-01-06T06:56:18.207Z,7.13
2024-01-06T06:58:44.940Z,5.47
2024-01-06T07:01:11.583Z,5.25
2024-01-06T07:03:38.689Z,6.82
2024-01-06T07:06:05.482Z,6.07
2024-01-06T07:08:32.066Z,4.85
2024-01-06T07:10:58.631Z,6.32
2024-01-06T07:13:25.222Z,6.13
2024-01-06T07:15:52.488Z,5.85
2024-01-06T07:18:24.320Z,4.97
2024-01-06T07:20:50.989Z,4.75
2024-01-06T07:23:17.709Z,6.18
2024-01-06T07:25:44.330Z,4.60
2024-01-06T07:28:10.906Z,5.05
2024-01-06T07:30:37.594Z,4.43
2024-01-06T07:33:04.410Z,4.68
2024-01-06T07:35:30.985Z,4.47
2024-01-06T07:37:57.551Z,4.40
2024-01-06T07:40:26.587Z,5.57
2024-01-06T07:42:53.239Z,5.07
2024-01-06T07:45:19.900Z,6.25
2024-01-06T07:47:46.570Z,6.18
2024-01-06T07:50:13.180Z,7.35
2024-01-06T07:52:39.734Z,6.80
2024-01-06T07:55:06.431Z,9.00
2024-01-06T07:57:33.272Z,10.23
2024-01-06T08:00:02.421Z,7.45
2024-01-06T08:02:31.013Z,8.90
2024-01-06T08:04:57.986Z,9.88
2024-01-06T08:07:24.865Z,10.23
2024-01-06T08:09:51.499Z,10.55
2024-01-06T08:12:18.144Z,10.60
2024-01-06T08:14:44.773Z,11.75
2024-01-06T08:17:11.347Z,11.48
2024-01-06T08:19:38.125Z,11.20
2024-01-06T08:22:04.784Z,12.80
2024-01-06T08:24:31.333Z,13.70
2024-01-06T08:26:58.523Z,13.98
2024-01-06T08:29:25.067Z,13.88
2024-01-06T08:31:53.433Z,12.90
2024-01-06T08:34:20.349Z,14.65
2024-01-06T08:36:47.281Z,15.15
2024-01-06T08:39:14.178Z,15.85
2024-01-06T08:41:40.782Z,15.38
2024-01-06T08:44:07.328Z,25.13
2024-01-06T08:46:33.921Z,17.80
2024-01-06T08:49:01.698Z,16.92
2024-01-06T08:51:28.510Z,19.60
2024-01-06T08:53:55.108Z,22.30
2024-01-06T08:56:21.820Z,20.65
2024-01-06T08:58:48.368Z,20.30
2024-01-06T09:01:15.080Z,21.55
2024-01-06T09:03:41.896Z,19.15
2024-01-06T09:06:08.574Z,22.23
2024-01-06T09:08:35.139Z,22.10
2024-01-06T09:11:01.769Z,21.27
2024-01-06T09:13:28.326Z,24.92
2024-01-06T09:15:55.304Z,25.27
2024-01-06T09:18:22.232Z,23.52
2024-01-06T09:20:49.108Z,28.20
2024-01-06T09:23:17.069Z,25.65
2024-01-06T09:25:43.710Z,25.17
2024-01-06T09:28:11.989Z,27.67
2024-01-06T09:30:38.876Z,27.17
2024-01-06T09:33:05.699Z,26.25
2024-01-06T09:35:33.287Z,27.02
2024-01-06T09:37:59.866Z,28.83
2024-01-06T09:40:26.448Z,27.95
2024-01-06T09:42:54.733Z,27.38
2024-01-06T09:45:22.224Z,28.10
2024-01-06T09:47:52.934Z,27.63
2024-01-06T09:50:20.636Z,28.80
2024-01-06T09:52:56.583Z,30.38
2024-01-06T09:55:27.272Z,30.33
2024-01-06T09:57:55.066Z,29.65
2024-01-06T10:00:22.758Z,30.85
2024-01-06T10:02:50.179Z,30.02
2024-01-06T10:05:20.179Z,31.10
2024-01-06T10:07:47.122Z,33.78
2024-01-06T10:10:14.425Z,32.38
2024-01-06T10:12:42.325Z,35.42
2024-01-06T10:15:11.124Z,38.65
2024-01-06T10:17:42.088Z,37.60
2024-01-06T10:20:13.202Z,40.47
2024-01-06T10:22:42.491Z,43.58
2024-01-06T10:25:10.238Z,47.75
2024-01-06T10:27:38.384Z,44.25
2024-01-06T10:30:08.726Z,45.70
2024-01-06T10:32:37.389Z,47.38
2024-01-06T10:35:08.296Z,47.28
2024-01-06T10:37:35.097Z,75.43
2024-01-06T10:40:08.711Z,54.65
2024-01-06T10:45:03.206Z,65.93
2024-01-06T10:47:33.186Z,59.30
2024-01-06T10:50:02.146Z,59.45
2024-01-06T10:52:29.660Z,57.55
2024-01-06T10:54:57.063Z,55.67
2024-01-06T10:57:24.656Z,54.72
2024-01-06T10:59:52.718Z,52.92
2024-01-06T11:02:20.144Z,57.92
2024-01-06T11:04:48.254Z,49.33
2024-01-06T11:07:17.299Z,51.60
2024-01-06T11:10:01.489Z,51.83
2024-01-06T11:12:28.596Z,45.60
2024-01-06T11:14:55.579Z,46.92
2024-01-06T11:17:55.065Z,51.83
2024-01-06T11:20:23.234Z,64.00
2024-01-06T11:22:50.942Z,77.53
2024-01-06T11:25:20.994Z,79.80
2024-01-06T11:27:49.590Z,91.25
2024-01-06T11:30:24.583Z,95.97
2024-01-06T11:32:56.638Z,89.22
2024-01-06T11:35:25.159Z,98.78
2024-01-06T11:37:56.071Z,92.75
2024-01-06T11:40:22.712Z,92.68
2024-01-06T11:42:58.094Z,97.55
2024-01-06T11:45:26.466Z,103.13
2024-01-06T11:48:03.610Z,100.18
2024-01-06T11:50:33.371Z,101.80
2024-01-06T11:53:02.998Z,104.65
2024-01-06T11:55:30.073Z,87.40
2024-01-06T11:57:58.816Z,88.53
2024-01-06T12:00:25.610Z,86.07
2024-01-06T12:02:57.610Z,85.60
2024-01-06T12:05:25.989Z,83.63
2024-01-06T12:07:56.253Z,87.40
2024-01-06T12:10:23.813Z,82.13
2024-01-06T12:13:18.988Z,77.15
2024-01-06T12:15:45.684Z,78.38
2024-01-06T12:18:12.455Z,73.15
2024-01-06T12:20:39.273Z,76.90
2024-01-06T12:23:07.590Z,69.90
2024-01-06T12:25:39.936Z,72.53
2024-01-06T12:28:07.851Z,64.32
2024-01-06T12:30:36.459Z,63.33
2024-01-06T12:33:03.597Z,63.97
2024-01-06T12:35:30.294Z,62.50
2024-01-06T12:37:57.136Z,56.20
2024-01-06T12:40:23.931Z,56.05
2024-01-06T12:42:50.583Z,54.08
2024-01-06T12:45:17.722Z,53.15
2024-01-06T12:47:44.776Z,51.05
2024-01-06T12:50:11.573Z,54.15
2024-01-06T12:52:40.100Z,46.20
2024-01-06T12:55:08.617Z,46.53
2024-01-06T12:57:35.639Z,51.08
2024-01-06T13:00:02.707Z,43.08
2024-01-06T13:02:29.593Z,40.72
2024-01-06T13:04:56.366Z,38.60
2024-01-06T13:07:23.344Z,39.28
2024-01-06T13:09:50.390Z,39.17
2024-01-06T13:12:19.628Z,39.15
2024-01-06T13:14:48.412Z,35.47
2024-01-06T13:17:18.027Z,42.33
2024-01-06T13:19:45.117Z,57.95
2024-01-06T13:22:11.791Z,56.97
2024-01-06T13:24:39.116Z,58.10
2024-01-06T13:27:05.886Z,60.53
2024-01-06T13:29:32.799Z,60.45
2024-01-06T13:32:00.703Z,57.40
2024-01-06T13:34:27.994Z,63.50
2024-01-06T13:36:57.140Z,60.10
2024-01-06T13:39:24.621Z,57.90
2024-01-06T13:41:51.358Z,53.92
2024-01-06T13:44:17.998Z,52.88
2024-01-06T13:46:48.773Z,48.95
2024-01-06T13:49:15.828Z,53.75
2024-01-06T13:51:42.753Z,56.15
2024-01-06T13:54:10.545Z,52.60
2024-01-06T13:56:38.042Z,48.88
2024-01-06T13:59:04.803Z,47.15
2024-01-06T14:01:31.810Z,47.33
2024-01-06T14:03:59.352Z,42.83
2024-01-06T14:06:26.927Z,42.63
2024-01-06T14:08:53.753Z,53.35
2024-01-06T14:11:20.334Z,49.67
2024-01-06T14:13:50.501Z,52.85
2024-01-06T14:16:17.081Z,51.42
2024-01-06T14:18:43.781Z,49.15
2024-01-06T14:21:11.687Z,49.55
2024-01-06T14:23:38.407Z,49.25
2024-01-06T14:26:05.000Z,51.42
2024-01-06T14:28:31.608Z,46.42
2024-01-06T14:30:58.279Z,43.90
2024-01-06T14:33:25.018Z,40.97
2024-01-06T14:35:51.917Z,39.13
2024-01-06T14:38:18.513Z,41.05
2024-01-06T14:40:45.165Z,38.40
2024-01-06T14:43:11.800Z,36.92
2024-01-06T14:45:39.314Z,36.95
2024-01-06T14:48:06.635Z,35.38
2024-01-06T14:50:33.255Z,37.10
2024-01-06T14:52:59.826Z,33.63
2024-01-06T14:55:26.421Z,34.53
2024-01-06T14:57:53.014Z,35.70
2024-01-06T15:00:19.813Z,31.27
2024-01-06T15:02:49.846Z,31.17
2024-01-06T15:05:17.055Z,33.15
2024-01-06T15:07:43.826Z,28.42
2024-01-06T15:10:11.747Z,28.30
2024-01-06T15:12:38.508Z,28.50
2024-01-06T15:15:06.999Z,26.88
2024-01-06T15:17:33.737Z,26.00
2024-01-06T15:20:00.415Z,26.35
2024-01-06T15:22:29.190Z,25.20
2024-01-06T15:24:57.938Z,27.42
2024-01-06T15:27:25.529Z,24.33
2024-01-06T15:29:52.290Z,24.35
2024-01-06T15:32:19.425Z,23.55
2024-01-06T15:34:46.036Z,24.65
2024-01-06T15:37:12.591Z,21.23
2024-01-06T15:39:39.226Z,24.45
2024-01-06T15:42:05.892Z,20.70
2024-01-06T15:44:34.575Z,19.48
2024-01-06T15:47:01.285Z,20.30
2024-01-06T15:49:28.559Z,19.63
2024-01-06T15:51:55.397Z,18.33
2024-01-06T15:54:24.153Z,17.02
2024-01-06T15:56:51.076Z,18.98
2024-01-06T15:59:17.664Z,17.20
2024-01-06T16:01:44.405Z,20.42
2024-01-06T16:04:11.299Z,16.38
2024-01-06T16:06:38.001Z,16.38
2024-01-06T16:09:06.878Z,16.73
2024-01-06T16:11:33.687Z,14.77
2024-01-06T16:14:00.264Z,18.05
2024-01-06T16:16:30.091Z,14.63
2024-01-06T16:18:56.864Z,15.00
2024-01-06T16:21:24.817Z,14.48
2024-01-06T16:23:52.316Z,14.07
2024-01-06T16:26:20.069Z,14.63
2024-01-06T16:28:48.005Z,14.38
2024-01-06T16:31:14.649Z,12.45
2024-01-06T16:33:41.505Z,14.32
2024-01-06T16:36:11.358Z,13.27
2024-01-06T16:38:38.015Z,11.77
2024-01-06T16:41:05.143Z,12.77
2024-01-06T16:43:35.537Z,12.85
2024-01-06T16:46:02.157Z,12.80
2024-01-06T16:48:28.936Z,10.85
2024-01-06T16:50:55.593Z,10.93
2024-01-06T16:53:22.158Z,10.73
2024-01-06T16:55:48.731Z,10.38
2024-01-06T16:58:15.398Z,9.82
2024-01-06T17:00:42.126Z,11.52
2024-01-06T17:03:09.249Z,10.93
2024-01-06T17:05:36.108Z,10.60
2024-01-06T17:08:04.682Z,10.93
2024-01-06T17:10:31.283Z,10.77
2024-01-06T17:12:57.939Z,10.80
2024-01-06T17:15:27.311Z,12.40
2024-01-06T17:17:54.027Z,16.60
2024-01-06T17:20:20.704Z,18.92
2024-01-06T17:22:47.673Z,24.80
2024-01-06T17:25:16.201Z,29.92
2024-01-06T17:27:46.379Z,34.42
2024-01-06T17:30:15.703Z,42.05
2024-01-06T17:32:42.641Z,44.50
2024-01-06T17:35:09.633Z,48.03
2024-01-06T17:37:36.240Z,51.03
2024-01-06T17:40:03.826Z,56.20
2024-01-06T17:42:31.339Z,61.13
2024-01-06T17:44:59.216Z,61.60
2024-01-06T17:47:26.004Z,60.28
2024-01-06T17:49:52.749Z,65.88
2024-01-06T17:52:19.759Z,62.88
2024-01-06T17:54:46.450Z,67.72
2024-01-06T17:57:18.869Z,66.57
2024-01-06T17:59:46.289Z,68.25
2024-01-06T18:02:13.963Z,68.13
2024-01-06T18:04:40.815Z,69.47
2024-01-06T18:07:09.137Z,65.82
2024-01-06T18:09:36.014Z,70.88
2024-01-06T18:12:02.646Z,68.13
2024-01-06T18:14:36.061Z,68.20
2024-01-06T18:17:04.734Z,66.75
2024-01-06T18:19:31.452Z,72.22
2024-01-06T18:21:58.443Z,73.82
2024-01-06T18:24:25.088Z,75.82
2024-01-06T18:26:52.175Z,74.65
2024-01-06T18:29:19.987Z,80.18
2024-01-06T18:31:46.841Z,81.30
2024-01-06T18:34:13.653Z,83.18
2024-01-06T18:36:40.486Z,81.13
2024-01-06T18:39:08.622Z,87.70
2024-01-06T18:41:35.239Z,86.10
2024-01-06T18:44:03.369Z,89.70
2024-01-06T18:46:30.118Z,90.15
2024-01-06T18:48:56.923Z,89.40
2024-01-06T18:51:23.655Z,88.78
2024-01-06T18:53:50.210Z,94.88
2024-01-06T18:56:16.800Z,92.20
2024-01-06T18:58:43.477Z,92.55
2024-01-06T19:01:10.137Z,93.15
2024-01-06T19:03:36.892Z,88.18
2024-01-06T19:06:03.646Z,88.75
2024-01-06T19:08:30.237Z,90.00
2024-01-06T19:10:56.789Z,87.60
2024-01-06T19:13:23.339Z,86.00
2024-01-06T19:15:50.071Z,78.15
2024-01-06T19:18:16.777Z,88.43
2024-01-06T19:20:45.455Z,80.97
2024-01-06T19:23:12.258Z,79.00
2024-01-06T19:25:38.825Z,70.78
2024-01-06T19:28:06.545Z,75.03
2024-01-06T19:30:33.349Z,68.72
2024-01-06T19:33:00.138Z,63.58
2024-01-06T19:35:28.361Z,67.88
2024-01-06T19:37:54.924Z,64.05
2024-01-06T19:40:22.600Z,62.42
2024-01-06T19:42:52.198Z,58.33
2024-01-06T19:45:19.106Z,58.00
2024-01-06T19:47:45.950Z,54.85
2024-01-06T19:50:13.296Z,53.47
2024-01-06T19:52:39.949Z,52.13
2024-01-06T19:55:10.929Z,47.00
2024-01-06T19:57:37.777Z,47.85
2024-01-06T20:00:05.802Z,46.70
2024-01-06T20:02:32.428Z,46.30
2024-01-06T20:04:59.194Z,42.20
2024-01-06T20:07:29.835Z,42.22
2024-01-06T20:09:58.048Z,43.25
2024-01-06T20:12:25.940Z,41.97
2024-01-06T20:14:57.802Z,37.60
2024-01-06T20:17:25.440Z,39.30
2024-01-06T20:19:52.656Z,39.00
2024-01-06T20:22:19.719Z,38.38
2024-01-06T20:24:46.439Z,40.05
2024-01-06T20:27:13.348Z,42.85
2024-01-06T20:29:39.939Z,47.47
2024-01-06T20:32:07.024Z,106.32
2024-01-06T20:34:34.114Z,102.82
2024-01-06T20:37:01.169Z,110.82
2024-01-06T20:39:27.904Z,110.10
2024-01-06T20:41:54.598Z,108.13
2024-01-06T20:44:21.616Z,110.57
2024-01-06T20:46:49.784Z,105.10
2024-01-06T20:49:16.529Z,102.55
2024-01-06T20:51:43.148Z,95.82
2024-01-06T20:54:09.707Z,102.20
2024-01-06T20:56:37.418Z,95.60
2024-01-06T20:59:04.034Z,94.03
2024-01-06T21:01:30.846Z,95.22
2024-01-06T21:03:57.594Z,89.88
2024-01-06T21:06:24.218Z,94.97
2024-01-06T21:08:50.961Z,98.40
2024-01-06T21:11:17.544Z,95.85
2024-01-06T21:13:44.137Z,102.03
2024-01-06T21:16:10.832Z,101.38
2024-01-06T21:18:40.345Z,97.57
2024-01-06T21:21:06.959Z,97.22
2024-01-06T21:23:40.530Z,102.70
2024-01-06T21:26:14.485Z,102.68
2024-01-06T21:28:41.064Z,99.95
2024-01-06T21:31:07.829Z,98.80
2024-01-06T21:33:34.585Z,98.45
2024-01-06T21:36:01.236Z,97.47
2024-01-06T21:38:27.769Z,96.97
2024-01-06T21:40:54.350Z,95.50
2024-01-06T21:43:21.110Z,89.82
2024-01-06T21:45:47.890Z,95.05
2024-01-06T21:48:14.659Z,89.70
2024-01-06T21:50:41.906Z,89.95
2024-01-06T21:53:08.608Z,92.63
2024-01-06T21:55:35.158Z,90.57
2024-01-06T21:58:01.910Z,86.90
2024-01-06T22:00:28.745Z,81.50
2024-01-06T22:02:55.413Z,83.10
2024-01-06T22:05:22.164Z,86.05
2024-01-06T22:07:48.821Z,80.85
2024-01-06T22:10:16.251Z,75.60
2024-01-06T22:12:42.889Z,78.65
2024-01-06T22:15:10.221Z,74.50
2024-01-06T22:17:36.868Z,74.00
2024-01-06T22:20:05.102Z,75.95
2024-01-06T22:22:31.765Z,72.03
2024-01-06T22:24:58.476Z,74.70
2024-01-06T22:27:25.286Z,68.03
2024-01-06T22:29:52.005Z,68.68
2024-01-06T22:32:18.574Z,66.13
2024-01-06T22:34:45.551Z,67.47
2024-01-06T22:37:12.531Z,69.18
2024-01-06T22:39:42.426Z,68.07
2024-01-06T22:42:09.152Z,67.47
2024-01-06T22:44:36.431Z,68.00
2024-01-06T22:47:03.269Z,66.03
2024-01-06T22:49:30.087Z,68.15
2024-01-06T22:51:56.876Z,66.50
2024-01-06T22:54:23.696Z,67.45
2024-01-06T22:56:50.343Z,67.00
2024-01-06T22:59:17.211Z,64.72
2024-01-06T23:01:44.000Z,67.05
2024-01-06T23:04:10.672Z,66.90
2024-01-06T23:06:37.585Z,65.85
2024-01-06T23:09:05.656Z,63.83
2024-01-06T23:11:32.541Z,65.88
2024-01-06T23:13:59.539Z,62.45
2024-01-06T23:16:26.835Z,61.75
2024-01-06T23:18:54.227Z,59.63
2024-01-06T23:21:20.935Z,62.75
2024-01-06T23:23:47.905Z,64.68
2024-01-06T23:26:14.546Z,65.15
2024-01-06T23:28:41.134Z,68.03
2024-01-06T23:31:09.326Z,62.55
2024-01-06T23:33:36.229Z,64.20
2024-01-06T23:36:04.030Z,64.35
2024-01-06T23:38:30.664Z,65.57
2024-01-06T23:40:57.298Z,62.53
2024-01-06T23:43:23.905Z,68.05
2024-01-06T23:45:50.620Z,61.67
2024-01-06T23:48:17.253Z,64.45
2024-01-06T23:50:43.838Z,60.88
2024-01-06T23:53:12.153Z,59.63
2024-01-06T23:55:38.737Z,59.17
2024-01-06T23:58:05.479Z,57.35
